Time;durP1;ratioP1;P1;durP2;ratioP2;P2;SDS_P1;SDS_P2;PMS_P1;PMS_P2;Temp;Humidity;BMP_temperature;BMP_pressure;BME280_temperature;BME280_humidity;BME280_pressure;Samples;Min_cycle;Max_cycle;Signal;HPM_P1;HPM_P2
2021/10/05 00:00:09;;;;;;;17.85;13.15;;;12.30;91.40;;;;;;5071425;28;20028;-73
2021/10/05 00:02:34;;;;;;;19.88;15.50;;;12.30;91.50;;;;;;5071520;28;20142;-74
2021/10/05 00:05:00;;;;;;;18.98;14.80;;;12.40;91.30;;;;;;5071931;28;20070;-74
2021/10/05 00:07:25;;;;;;;20.50;16.02;;;12.30;91.30;;;;;;5071889;28;20025;-74
2021/10/05 00:09:51;;;;;;;20.33;16.02;;;12.30;91.10;;;;;;5071785;28;20025;-74
2021/10/05 00:12:16;;;;;;;19.05;15.07;;;12.30;91.40;;;;;;5071766;28;20031;-74
2021/10/05 00:14:42;;;;;;;20.65;16.00;;;12.30;91.50;;;;;;5071549;28;20108;-74
2021/10/05 00:17:08;;;;;;;18.08;14.75;;;12.30;91.40;;;;;;5071727;28;20021;-74
2021/10/05 00:19:34;;;;;;;16.92;13.50;;;12.30;91.20;;;;;;5072807;28;20028;-75
2021/10/05 00:21:59;;;;;;;19.80;12.98;;;12.30;91.10;;;;;;5071690;28;20020;-74
2021/10/05 00:24:25;;;;;;;20.80;15.55;;;12.40;90.90;;;;;;5071384;28;20206;-74
2021/10/05 00:26:50;;;;;;;20.00;14.10;;;12.30;90.60;;;;;;5071834;28;20462;-74
2021/10/05 00:29:16;;;;;;;17.42;13.45;;;12.40;90.70;;;;;;5071300;28;20025;-74
2021/10/05 00:31:42;;;;;;;16.65;13.75;;;12.40;90.60;;;;;;5071314;28;20045;-74
2021/10/05 00:34:08;;;;;;;22.00;16.15;;;12.40;90.50;;;;;;5071381;28;20021;-73
2021/10/05 00:36:33;;;;;;;18.20;14.13;;;12.30;90.50;;;;;;5072752;28;20395;-74
2021/10/05 00:38:59;;;;;;;19.10;14.45;;;12.30;90.80;;;;;;5071226;28;20122;-73
2021/10/05 00:41:24;;;;;;;16.10;12.63;;;12.20;90.80;;;;;;5071311;28;20132;-74
2021/10/05 00:43:50;;;;;;;19.13;14.95;;;12.20;90.90;;;;;;5071696;28;20025;-74
2021/10/05 00:46:18;;;;;;;18.60;14.93;;;12.20;90.80;;;;;;5071380;28;20028;-74
2021/10/05 00:48:43;;;;;;;18.95;14.57;;;12.20;90.80;;;;;;5071448;28;20020;-73
2021/10/05 00:51:11;;;;;;;18.85;14.20;;;12.20;91.00;;;;;;5074275;28;20381;-74
2021/10/05 00:53:37;;;;;;;21.73;16.23;;;12.20;91.10;;;;;;5075396;28;20446;-74
2021/10/05 00:56:03;;;;;;;17.88;13.63;;;12.10;91.40;;;;;;5075199;28;20008;-73
2021/10/05 00:58:28;;;;;;;22.98;15.48;;;12.20;91.50;;;;;;5074936;28;20119;-73
2021/10/05 01:00:54;;;;;;;21.65;15.65;;;12.10;91.30;;;;;;5075161;28;20441;-73
2021/10/05 01:03:20;;;;;;;20.88;15.80;;;12.00;91.30;;;;;;5074891;28;20029;-74
2021/10/05 01:05:45;;;;;;;21.23;15.32;;;12.00;91.50;;;;;;5075205;28;20033;-74
2021/10/05 01:08:17;;;;;;;19.70;14.68;;;12.00;91.70;;;;;;5074743;28;20527;-73
2021/10/05 01:10:42;;;;;;;20.65;14.98;;;12.00;91.40;;;;;;5075085;28;20029;-74
2021/10/05 01:13:08;;;;;;;21.40;15.55;;;12.00;91.40;;;;;;5074462;28;20078;-74
2021/10/05 01:15:34;;;;;;;19.92;14.40;;;12.00;91.30;;;;;;5074766;28;20028;-74
2021/10/05 01:17:59;;;;;;;16.95;12.80;;;12.10;91.30;;;;;;5076010;28;20024;-73
2021/10/05 01:20:26;;;;;;;17.75;12.57;;;12.10;92.20;;;;;;5075805;28;20054;-72
2021/10/05 01:22:52;;;;;;;17.20;13.48;;;12.20;92.20;;;;;;5074928;28;20021;-73
2021/10/05 01:25:19;;;;;;;18.48;13.85;;;12.10;91.10;;;;;;5074754;28;20165;-74
2021/10/05 01:27:47;;;;;;;14.98;11.88;;;12.20;91.00;;;;;;5074407;28;20021;-73
2021/10/05 01:30:15;;;;;;;19.90;13.82;;;12.20;91.10;;;;;;5075746;28;20049;-73
2021/10/05 01:32:41;;;;;;;18.83;12.38;;;12.10;90.90;;;;;;5074761;28;20038;-73
2021/10/05 01:35:07;;;;;;;16.23;12.52;;;12.10;91.00;;;;;;5074553;28;20465;-73
2021/10/05 01:37:33;;;;;;;16.95;12.50;;;12.10;90.70;;;;;;5074373;28;20029;-73
2021/10/05 01:39:59;;;;;;;15.77;11.52;;;12.20;90.60;;;;;;5074395;28;20126;-73
2021/10/05 01:42:24;;;;;;;15.07;11.65;;;12.20;90.50;;;;;;5074378;28;20028;-73
2021/10/05 01:44:51;;;;;;;18.40;11.27;;;12.10;90.80;;;;;;5075796;28;20119;-74
2021/10/05 01:47:17;;;;;;;18.35;13.15;;;12.20;90.80;;;;;;5074211;28;20031;-73
2021/10/05 01:49:43;;;;;;;17.85;13.52;;;12.20;91.00;;;;;;5074354;28;20057;-73
2021/10/05 01:52:09;;;;;;;16.17;11.82;;;12.10;91.00;;;;;;5074333;28;20064;-74
2021/10/05 01:54:36;;;;;;;16.83;12.82;;;12.10;90.90;;;;;;5073899;28;20017;-75
2021/10/05 01:57:02;;;;;;;18.55;12.82;;;12.10;90.90;;;;;;5074167;28;20054;-74
2021/10/05 01:59:28;;;;;;;18.23;13.65;;;12.10;90.80;;;;;;5074100;28;20024;-74
2021/10/05 02:01:53;;;;;;;17.27;13.15;;;12.00;91.00;;;;;;5073288;28;20028;-74
2021/10/05 02:04:19;;;;;;;19.00;13.70;;;12.00;91.30;;;;;;5073367;28;20043;-74
2021/10/05 02:06:45;;;;;;;20.30;13.82;;;11.90;91.50;;;;;;5074085;28;20131;-74
2021/10/05 02:09:12;;;;;;;21.52;13.52;;;11.90;91.70;;;;;;5075231;28;20023;-74
2021/10/05 02:11:38;;;;;;;16.90;12.93;;;11.80;91.80;;;;;;5073991;28;20013;-73
2021/10/05 02:14:05;;;;;;;18.67;14.05;;;11.90;92.10;;;;;;5073791;28;20081;-73
2021/10/05 02:16:31;;;;;;;19.55;14.48;;;11.90;92.00;;;;;;5073808;28;20063;-73
2021/10/05 02:18:57;;;;;;;17.23;12.60;;;11.80;91.90;;;;;;5073420;28;20032;-73
2021/10/05 02:21:22;;;;;;;20.13;14.23;;;11.90;92.10;;;;;;5073277;28;20404;-73
2021/10/05 02:26:33;;;;;;;20.58;14.93;;;11.90;91.80;;;;;;5075060;28;20032;-73
2021/10/05 02:28:59;;;;;;;19.52;14.30;;;11.90;91.80;;;;;;5073531;28;20021;-73
2021/10/05 02:31:26;;;;;;;18.58;13.82;;;11.80;91.90;;;;;;5074276;28;20515;-73
2021/10/05 02:33:51;;;;;;;20.70;13.98;;;11.80;92.10;;;;;;5073508;28;20028;-73
2021/10/05 02:36:18;;;;;;;17.83;13.23;;;11.80;92.10;;;;;;5073136;28;20025;-73
2021/10/05 02:38:43;;;;;;;21.35;14.95;;;11.90;92.30;;;;;;5073357;28;20469;-73
2021/10/05 02:41:09;;;;;;;21.27;15.02;;;11.90;92.20;;;;;;5074397;28;20032;-73
2021/10/05 02:43:34;;;;;;;19.40;12.80;;;11.80;92.30;;;;;;5073364;28;20021;-73
2021/10/05 02:46:00;;;;;;;20.80;14.13;;;11.80;92.10;;;;;;5072986;28;20495;-73
2021/10/05 02:48:26;;;;;;;20.70;13.80;;;11.80;92.50;;;;;;5073034;28;20405;-73
2021/10/05 02:50:51;;;;;;;22.13;13.82;;;11.70;92.40;;;;;;5073154;28;20044;-74
2021/10/05 02:53:17;;;;;;;21.13;13.63;;;11.70;92.50;;;;;;5073050;28;20128;-74
2021/10/05 02:55:43;;;;;;;20.35;13.32;;;11.70;92.60;;;;;;5073080;28;20063;-74
2021/10/05 02:58:09;;;;;;;16.50;12.13;;;11.70;92.70;;;;;;5072921;28;20025;-75
2021/10/05 03:00:35;;;;;;;18.80;12.35;;;11.80;92.60;;;;;;5072916;28;20060;-75
2021/10/05 03:03:00;;;;;;;13.52;10.05;;;11.80;92.40;;;;;;5072752;28;20059;-75
2021/10/05 03:05:26;;;;;;;18.48;13.57;;;11.80;92.40;;;;;;5072741;28;20048;-75
2021/10/05 03:07:52;;;;;;;18.40;12.90;;;11.80;92.20;;;;;;5072741;28;20017;-75
2021/10/05 03:10:17;;;;;;;17.55;12.27;;;11.80;92.20;;;;;;5072401;28;20024;-75
2021/10/05 03:12:43;;;;;;;17.40;12.85;;;11.80;92.00;;;;;;5072342;28;20134;-73
2021/10/05 03:15:09;;;;;;;15.85;11.30;;;11.80;92.10;;;;;;5072292;28;20107;-74
2021/10/05 03:17:34;;;;;;;16.85;11.18;;;11.80;92.10;;;;;;5072547;28;20028;-74
2021/10/05 03:20:00;;;;;;;15.35;11.10;;;11.70;92.40;;;;;;5072509;28;20028;-74
2021/10/05 03:22:26;;;;;;;15.15;11.10;;;11.70;92.30;;;;;;5072436;28;20032;-73
2021/10/05 03:24:52;;;;;;;17.00;11.02;;;11.70;92.40;;;;;;5072286;28;20027;-73
2021/10/05 03:27:18;;;;;;;15.52;11.07;;;11.70;92.70;;;;;;5072239;28;20396;-73
2021/10/05 03:29:43;;;;;;;16.60;11.82;;;11.80;92.80;;;;;;5072275;28;20044;-73
2021/10/05 03:32:09;;;;;;;18.17;12.98;;;11.80;92.80;;;;;;5072331;28;20028;-73
2021/10/05 03:34:35;;;;;;;17.42;12.27;;;11.80;92.50;;;;;;5072323;28;20024;-73
2021/10/05 03:37:01;;;;;;;16.52;11.85;;;11.70;92.70;;;;;;5072219;28;20030;-73
2021/10/05 03:39:26;;;;;;;15.52;11.23;;;11.70;92.80;;;;;;5072101;28;20020;-74
2021/10/05 03:41:52;;;;;;;16.55;11.15;;;11.80;92.50;;;;;;5071912;28;20458;-74
2021/10/05 03:44:18;;;;;;;17.50;11.95;;;11.90;92.30;;;;;;5071958;28;20028;-73
2021/10/05 03:46:43;;;;;;;18.42;12.57;;;11.90;92.40;;;;;;5072205;28;20358;-74
2021/10/05 03:49:09;;;;;;;18.67;12.63;;;11.80;92.00;;;;;;5071729;28;20029;-74
2021/10/05 03:51:34;;;;;;;18.88;12.10;;;11.80;92.40;;;;;;5071828;28;20036;-74
2021/10/05 03:54:01;;;;;;;17.35;11.95;;;11.80;92.60;;;;;;5072006;28;20031;-74
2021/10/05 03:56:26;;;;;;;17.25;11.38;;;11.70;93.10;;;;;;5071698;28;20480;-74
2021/10/05 03:58:52;;;;;;;15.65;10.98;;;11.70;93.30;;;;;;5071893;28;20175;-74
2021/10/05 04:01:17;;;;;;;16.08;10.30;;;11.70;93.30;;;;;;5071733;28;20085;-74
2021/10/05 04:03:43;;;;;;;12.63;9.18;;;11.60;93.40;;;;;;5071889;28;20465;-74
2021/10/05 04:06:09;;;;;;;14.30;9.85;;;11.60;93.50;;;;;;5071533;28;20166;-75
2021/10/05 04:08:35;;;;;;;13.20;8.77;;;11.70;93.50;;;;;;5071629;28;20031;-74
2021/10/05 04:11:01;;;;;;;14.38;10.18;;;11.80;93.30;;;;;;5071894;28;20031;-74
2021/10/05 04:13:27;;;;;;;12.55;9.55;;;11.90;93.00;;;;;;5071663;28;20021;-74
2021/10/05 04:15:53;;;;;;;14.68;9.38;;;11.90;92.90;;;;;;5071860;28;20107;-74
2021/10/05 04:18:19;;;;;;;11.82;8.65;;;11.80;92.50;;;;;;5071335;28;20524;-74
2021/10/05 04:20:44;;;;;;;13.57;9.50;;;11.80;92.40;;;;;;5071676;28;20039;-75
2021/10/05 04:23:10;;;;;;;14.15;9.93;;;11.80;92.30;;;;;;5071212;28;20550;-74
2021/10/05 04:25:36;;;;;;;14.43;9.82;;;11.80;92.60;;;;;;5070949;28;20060;-75
2021/10/05 04:28:02;;;;;;;14.75;9.65;;;11.70;92.80;;;;;;5071586;28;20024;-76
2021/10/05 04:30:28;;;;;;;12.50;8.52;;;11.70;93.00;;;;;;5071378;28;20090;-74
2021/10/05 04:32:53;;;;;;;13.80;9.18;;;11.80;93.00;;;;;;5071330;28;20028;-75
2021/10/05 04:35:20;;;;;;;13.10;9.48;;;11.80;92.60;;;;;;5071214;28;20073;-75
2021/10/05 04:37:46;;;;;;;13.45;9.77;;;11.90;92.30;;;;;;5071196;28;20032;-75
2021/10/05 04:40:12;;;;;;;13.75;9.18;;;11.80;92.30;;;;;;5071087;28;20039;-75
2021/10/05 04:42:38;;;;;;;10.30;7.93;;;11.80;92.10;;;;;;5071059;28;20100;-75
2021/10/05 04:45:04;;;;;;;10.57;7.68;;;11.80;92.20;;;;;;5071307;28;20107;-75
2021/10/05 04:47:30;;;;;;;12.98;9.25;;;11.80;92.20;;;;;;5071098;28;20558;-75
2021/10/05 04:49:55;;;;;;;12.77;8.73;;;11.80;92.10;;;;;;5071169;28;20090;-74
2021/10/05 04:52:21;;;;;;;11.75;8.27;;;11.70;92.60;;;;;;5071273;28;20575;-74
2021/10/05 04:54:47;;;;;;;12.20;9.00;;;11.60;92.90;;;;;;5073599;28;20032;-75
2021/10/05 04:57:13;;;;;;;11.05;7.57;;;11.60;93.10;;;;;;5072863;28;20025;-75
2021/10/05 04:59:38;;;;;;;10.90;7.28;;;11.70;93.20;;;;;;5071253;28;20021;-73
2021/10/05 05:02:04;;;;;;;10.48;7.28;;;11.70;93.10;;;;;;5071065;28;20119;-73
2021/10/05 05:04:30;;;;;;;10.65;7.80;;;11.80;92.90;;;;;;5071933;28;20033;-74
2021/10/05 05:06:55;;;;;;;10.15;7.75;;;11.80;92.60;;;;;;5071040;28;20036;-73
2021/10/05 05:09:21;;;;;;;11.27;8.50;;;11.90;92.20;;;;;;5071035;28;20070;-73
2021/10/05 05:11:46;;;;;;;9.25;7.47;;;11.90;92.00;;;;;;5071430;28;20493;-73
2021/10/05 05:14:13;;;;;;;8.38;6.55;;;12.00;91.80;;;;;;5070926;28;20031;-73
2021/10/05 05:16:41;;;;;;;10.00;7.03;;;12.00;91.90;;;;;;5070986;28;20470;-74
2021/10/05 05:19:08;;;;;;;10.23;6.57;;;12.00;91.80;;;;;;5070531;28;20408;-73
2021/10/05 05:21:34;;;;;;;9.60;6.80;;;12.00;91.90;;;;;;5070724;28;20045;-73
2021/10/05 05:24:00;;;;;;;10.65;7.28;;;12.00;91.60;;;;;;5070452;28;20020;-73
2021/10/05 05:26:26;;;;;;;8.90;6.70;;;12.00;91.00;;;;;;5070200;28;20452;-73
2021/10/05 05:28:53;;;;;;;9.27;7.07;;;12.00;90.70;;;;;;5070475;28;20381;-73
2021/10/05 05:31:19;;;;;;;12.05;7.05;;;11.90;90.50;;;;;;5069430;28;20097;-72
2021/10/05 05:33:45;;;;;;;11.20;6.80;;;11.80;90.90;;;;;;5069832;28;20111;-72
2021/10/05 05:36:11;;;;;;;9.25;6.13;;;11.90;91.00;;;;;;5070370;28;20050;-72
2021/10/05 05:38:37;;;;;;;7.22;5.28;;;11.80;90.80;;;;;;5074194;28;20031;-72
2021/10/05 05:41:03;;;;;;;7.65;5.70;;;11.80;90.90;;;;;;5075228;28;20032;-73
2021/10/05 05:43:29;;;;;;;8.70;6.00;;;11.80;90.90;;;;;;5073906;28;20103;-72
2021/10/05 05:45:54;;;;;;;8.50;6.43;;;11.80;90.90;;;;;;5074255;28;20585;-73
2021/10/05 05:48:20;;;;;;;7.95;5.82;;;11.80;90.90;;;;;;5073588;28;20397;-73
2021/10/05 05:50:45;;;;;;;5.88;4.85;;;11.80;90.60;;;;;;5073658;28;20056;-73
2021/10/05 05:53:11;;;;;;;5.30;4.10;;;11.80;90.70;;;;;;5073522;28;20530;-73
2021/10/05 05:55:37;;;;;;;5.05;4.10;;;11.80;90.80;;;;;;5073627;28;20464;-72
2021/10/05 05:58:10;;;;;;;6.18;4.03;;;11.90;90.80;;;;;;5073576;28;20031;-72
2021/10/05 06:00:36;;;;;;;5.38;4.55;;;12.00;90.60;;;;;;5073119;28;20035;-72
2021/10/05 06:03:01;;;;;;;6.78;4.40;;;12.10;90.50;;;;;;5074973;28;20021;-72
2021/10/05 06:05:27;;;;;;;5.18;4.38;;;12.20;89.40;;;;;;5073557;28;20515;-72
2021/10/05 06:07:53;;;;;;;8.10;4.13;;;12.20;89.40;;;;;;5073152;28;20056;-73
2021/10/05 06:10:18;;;;;;;6.30;4.70;;;12.10;89.10;;;;;;5073358;28;20024;-72
2021/10/05 06:12:44;;;;;;;8.02;5.32;;;12.10;89.30;;;;;;5073321;28;20111;-73
2021/10/05 06:15:15;;;;;;;6.68;4.70;;;12.10;89.20;;;;;;5073420;28;20021;-73
2021/10/05 06:17:42;;;;;;;7.10;4.93;;;12.20;89.30;;;;;;5072916;28;20060;-74
2021/10/05 06:20:09;;;;;;;12.80;5.50;;;12.20;88.90;;;;;;5056658;28;20037;-74
2021/10/05 06:22:36;;;;;;;10.30;5.38;;;12.20;90.80;;;;;;5073263;28;20029;-78
2021/10/05 06:25:07;;;;;;;11.05;6.20;;;12.60;96.00;;;;;;5073236;28;20059;-79
2021/10/05 06:27:33;;;;;;;8.52;5.60;;;12.80;95.40;;;;;;5074176;28;20037;-79
2021/10/05 06:29:58;;;;;;;7.75;5.28;;;13.00;92.90;;;;;;5072788;28;20041;-81
2021/10/05 06:32:25;;;;;;;7.20;4.95;;;13.20;91.10;;;;;;5072957;28;20037;-76
2021/10/05 06:34:51;;;;;;;7.45;5.32;;;13.50;89.30;;;;;;5072975;28;20021;-76
2021/10/05 06:37:17;;;;;;;8.45;5.28;;;13.70;86.80;;;;;;5072773;28;20427;-75
2021/10/05 06:39:43;;;;;;;7.07;4.80;;;13.80;85.20;;;;;;5073033;28;20176;-78
2021/10/05 06:42:15;;;;;;;10.00;5.00;;;13.90;84.40;;;;;;5072930;28;20556;-78
2021/10/05 06:44:43;;;;;;;7.40;5.03;;;14.00;83.20;;;;;;5073022;28;20029;-79
2021/10/05 06:47:09;;;;;;;7.10;5.20;;;14.10;82.80;;;;;;5074086;28;20112;-77
2021/10/05 06:49:34;;;;;;;6.45;5.18;;;14.00;82.50;;;;;;5072100;28;20048;-78
2021/10/05 06:52:01;;;;;;;5.85;5.20;;;14.10;82.10;;;;;;5072893;28;20032;-79
2021/10/05 06:54:29;;;;;;;7.70;4.85;;;14.30;81.60;;;;;;5072908;28;20492;-79
2021/10/05 06:56:56;;;;;;;7.80;5.70;;;14.40;80.80;;;;;;5056357;28;20036;-79
2021/10/05 06:59:22;;;;;;;7.35;5.88;;;14.40;80.80;;;;;;5072286;28;20140;-78
2021/10/05 07:01:54;;;;;;;7.28;6.03;;;14.40;80.60;;;;;;5072542;28;20143;-78
2021/10/05 07:04:20;;;;;;;8.23;5.60;;;14.30;80.90;;;;;;5073538;28;20104;-78
2021/10/05 07:06:47;;;;;;;7.75;5.63;;;14.40;81.70;;;;;;5071926;28;20059;-78
2021/10/05 07:09:15;;;;;;;6.13;4.72;;;14.40;80.60;;;;;;5072081;28;20092;-79
2021/10/05 07:11:41;;;;;;;5.47;4.65;;;14.70;79.70;;;;;;5073601;28;20088;-74
2021/10/05 07:14:06;;;;;;;9.18;5.25;;;14.60;79.00;;;;;;5072195;28;20055;-74
2021/10/05 07:16:32;;;;;;;5.90;5.05;;;14.50;79.40;;;;;;5071700;28;20029;-74
2021/10/05 07:18:57;;;;;;;7.28;4.85;;;14.30;79.90;;;;;;5071700;28;20028;-75
2021/10/05 07:21:24;;;;;;;5.90;4.50;;;14.20;80.30;;;;;;5072886;28;20042;-76
2021/10/05 07:23:50;;;;;;;4.93;4.35;;;14.10;80.50;;;;;;5071973;28;20016;-75
2021/10/05 07:26:17;;;;;;;6.43;4.75;;;14.10;80.90;;;;;;5072065;28;20029;-74
2021/10/05 07:28:43;;;;;;;5.45;4.57;;;14.10;81.20;;;;;;5071656;28;20035;-75
2021/10/05 07:31:08;;;;;;;5.00;4.30;;;14.10;81.20;;;;;;5071711;28;20045;-75
2021/10/05 07:33:34;;;;;;;4.82;4.03;;;14.20;81.10;;;;;;5071832;28;20020;-74
2021/10/05 07:35:59;;;;;;;5.10;4.00;;;14.30;81.00;;;;;;5071394;28;20020;-75
2021/10/05 07:38:25;;;;;;;5.15;3.88;;;14.40;80.20;;;;;;5071517;28;20086;-75
2021/10/05 07:40:51;;;;;;;3.95;3.45;;;14.40;79.70;;;;;;5071354;28;20036;-75
2021/10/05 07:43:16;;;;;;;4.45;3.20;;;14.50;78.70;;;;;;5071342;28;20020;-74
2021/10/05 07:45:44;;;;;;;4.20;3.03;;;14.50;78.30;;;;;;5071335;28;20546;-74
2021/10/05 07:48:10;;;;;;;4.15;3.38;;;14.50;78.00;;;;;;5055006;28;20119;-75
2021/10/05 07:50:35;;;;;;;3.30;2.67;;;14.50;78.00;;;;;;5071637;28;20508;-74
2021/10/05 07:53:03;;;;;;;4.93;3.20;;;14.50;78.20;;;;;;5071315;28;20470;-75
2021/10/05 07:55:29;;;;;;;3.05;2.25;;;14.50;78.20;;;;;;5071575;28;20020;-74
2021/10/05 07:57:55;;;;;;;3.90;3.45;;;14.50;78.60;;;;;;5071562;28;20025;-73
2021/10/05 08:00:22;;;;;;;3.85;3.10;;;14.50;78.50;;;;;;5070484;28;20029;-73
2021/10/05 08:02:48;;;;;;;8.13;5.40;;;14.40;78.50;;;;;;5071571;28;20032;-74
2021/10/05 08:05:17;;;;;;;5.70;4.60;;;14.30;79.80;;;;;;5072319;28;20028;-73
2021/10/05 08:07:44;;;;;;;3.22;2.92;;;14.10;80.30;;;;;;5071258;28;20043;-74
2021/10/05 08:10:10;;;;;;;5.32;3.88;;;14.10;80.60;;;;;;5072169;28;20021;-75
2021/10/05 08:12:37;;;;;;;4.10;3.58;;;14.10;80.70;;;;;;5071195;28;20048;-74
2021/10/05 08:15:03;;;;;;;5.63;4.10;;;14.10;80.70;;;;;;5070796;28;20377;-74
2021/10/05 08:17:29;;;;;;;5.30;3.63;;;14.20;81.20;;;;;;5070513;28;20036;-74
2021/10/05 08:19:55;;;;;;;5.20;3.92;;;14.20;81.10;;;;;;5072392;28;20025;-73
2021/10/05 08:22:21;;;;;;;4.93;4.22;;;14.10;80.00;;;;;;5071060;28;20035;-73
2021/10/05 08:24:47;;;;;;;7.28;4.70;;;14.10;81.60;;;;;;5071002;28;20025;-73
2021/10/05 08:27:13;;;;;;;4.97;4.35;;;14.10;82.40;;;;;;5070610;28;20025;-74
2021/10/05 08:29:42;;;;;;;7.22;4.70;;;14.20;82.10;;;;;;5070459;28;20040;-74
2021/10/05 08:32:08;;;;;;;4.88;3.60;;;14.10;81.60;;;;;;5071088;28;20024;-73
2021/10/05 08:34:35;;;;;;;10.45;4.05;;;14.20;81.20;;;;;;5070947;28;20024;-74
2021/10/05 08:37:00;;;;;;;4.28;3.47;;;14.20;80.70;;;;;;5070967;28;20060;-75
2021/10/05 08:39:26;;;;;;;4.50;3.78;;;14.20;81.70;;;;;;5070894;28;20480;-74
2021/10/05 08:41:52;;;;;;;4.53;3.30;;;14.20;81.80;;;;;;5070595;28;20037;-74
2021/10/05 08:44:17;;;;;;;5.10;3.90;;;14.20;81.70;;;;;;5070674;28;20378;-76
2021/10/05 08:46:44;;;;;;;5.95;3.80;;;14.20;82.40;;;;;;5070513;28;20111;-73
2021/10/05 08:49:10;;;;;;;4.43;3.33;;;14.00;82.90;;;;;;5070704;28;20086;-74
2021/10/05 08:51:37;;;;;;;5.38;3.60;;;13.90;84.00;;;;;;5070502;28;20024;-73
2021/10/05 08:54:03;;;;;;;3.60;2.78;;;13.80;83.60;;;;;;5071036;28;20095;-73
2021/10/05 08:56:29;;;;;;;2.78;2.33;;;13.80;84.10;;;;;;5070762;28;20060;-74
2021/10/05 08:58:55;;;;;;;3.30;2.35;;;13.80;83.90;;;;;;5070812;28;20477;-74
2021/10/05 09:01:20;;;;;;;2.30;2.10;;;13.90;83.50;;;;;;5071994;28;20586;-72
2021/10/05 09:03:54;;;;;;;2.88;2.03;;;14.00;83.90;;;;;;5071982;28;20385;-73
2021/10/05 09:06:22;;;;;;;3.45;2.40;;;13.90;83.20;;;;;;5070688;28;20385;-73
2021/10/05 09:08:49;;;;;;;2.40;2.20;;;13.80;82.80;;;;;;5070778;28;20025;-73
2021/10/05 09:11:17;;;;;;;2.45;2.03;;;13.70;82.70;;;;;;5070715;28;20115;-74
2021/10/05 09:13:49;;;;;;;1.85;1.75;;;13.50;83.10;;;;;;5074639;28;20116;-73
2021/10/05 09:16:24;;;;;;;3.35;2.53;;;13.40;83.20;;;;;;5074517;28;20032;-73
2021/10/05 09:19:00;;;;;;;1.85;1.42;;;13.30;84.10;;;;;;5074514;28;20023;-75
2021/10/05 09:21:55;;;;;;;2.42;2.05;;;13.30;84.00;;;;;;5073884;28;20032;-73
2021/10/05 09:24:32;;;;;;;3.00;2.70;;;13.20;84.40;;;;;;5071567;28;20111;-74
2021/10/05 09:27:02;;;;;;;5.78;3.72;;;13.40;84.00;;;;;;5074208;28;20035;-74
2021/10/05 09:29:33;;;;;;;2.67;2.17;;;13.50;82.80;;;;;;5073940;28;20016;-73
2021/10/05 09:32:07;;;;;;;2.03;1.80;;;13.50;82.60;;;;;;5073597;28;20162;-73
2021/10/05 09:34:51;;;;;;;1.77;1.67;;;13.60;81.90;;;;;;5073896;28;20020;-74
2021/10/05 09:37:18;;;;;;;2.47;1.67;;;13.70;81.00;;;;;;5073785;28;20035;-73
2021/10/05 09:39:53;;;;;;;2.90;1.33;;;13.80;80.20;;;;;;5074337;28;20358;-73
2021/10/05 09:42:20;;;;;;;1.27;1.17;;;14.10;80.20;;;;;;5073998;28;20094;-73
2021/10/05 09:45:13;;;;;;;1.45;1.20;;;14.40;80.30;;;;;;5074149;28;20021;-73
2021/10/05 09:47:53;;;;;;;1.73;0.88;;;14.70;79.10;;;;;;5072076;28;20037;-74
2021/10/05 09:50:30;;;;;;;1.00;0.90;;;14.90;77.50;;;;;;5075183;28;20078;-74
2021/10/05 09:52:58;;;;;;;0.70;0.70;;;15.10;76.40;;;;;;5073566;28;20017;-75
2021/10/05 09:55:27;;;;;;;2.45;0.70;;;15.20;73.10;;;;;;5073328;28;20037;-75
2021/10/05 09:57:54;;;;;;;0.65;0.65;;;15.20;73.20;;;;;;5073592;28;20073;-75
2021/10/05 10:00:21;;;;;;;0.98;0.80;;;15.40;73.40;;;;;;5073206;28;20035;-75
2021/10/05 10:02:48;;;;;;;1.02;0.90;;;15.40;72.30;;;;;;5073489;28;20028;-74
2021/10/05 10:05:16;;;;;;;0.57;0.57;;;15.40;71.90;;;;;;5056787;28;20508;-74
2021/10/05 10:07:44;;;;;;;0.80;0.75;;;15.30;71.80;;;;;;5072969;28;20384;-75
2021/10/05 10:10:13;;;;;;;1.20;0.95;;;15.20;73.10;;;;;;5072981;28;20028;-75
2021/10/05 10:12:41;;;;;;;1.33;0.90;;;15.30;75.70;;;;;;5073081;28;20021;-75
2021/10/05 10:15:09;;;;;;;1.20;0.95;;;15.10;74.70;;;;;;5072810;28;20059;-75
2021/10/05 10:17:35;;;;;;;1.08;0.90;;;15.10;74.70;;;;;;5072952;28;20016;-74
2021/10/05 10:20:01;;;;;;;1.17;0.80;;;15.00;75.50;;;;;;5072976;28;20469;-74
2021/10/05 10:22:27;;;;;;;2.13;1.40;;;15.10;76.10;;;;;;5072940;28;20033;-74
2021/10/05 10:24:58;;;;;;;2.15;1.42;;;15.30;77.10;;;;;;5072276;28;20021;-74
2021/10/05 10:27:24;;;;;;;3.05;1.50;;;15.40;77.60;;;;;;5074416;28;20033;-74
2021/10/05 10:29:53;;;;;;;1.23;0.98;;;15.50;77.20;;;;;;5073077;28;20148;-74
2021/10/05 10:32:24;;;;;;;1.95;1.33;;;15.70;76.50;;;;;;5073159;28;20108;-75
2021/10/05 10:35:03;;;;;;;1.10;1.00;;;15.80;75.90;;;;;;5074383;28;20023;-74
2021/10/05 10:37:50;;;;;;;1.45;0.90;;;15.70;76.10;;;;;;5073177;28;20066;-74
2021/10/05 10:40:18;;;;;;;1.60;1.35;;;15.70;75.50;;;;;;5069576;28;20454;-75
2021/10/05 10:42:44;;;;;;;1.90;1.30;;;15.80;74.90;;;;;;5072230;28;20366;-74
2021/10/05 10:45:16;;;;;;;1.05;0.77;;;15.80;74.40;;;;;;5072581;28;20027;-76
2021/10/05 10:47:43;;;;;;;1.45;0.88;;;15.80;73.30;;;;;;5072095;28;20369;-76
2021/10/05 10:50:11;;;;;;;0.80;0.70;;;15.90;72.20;;;;;;5071975;28;20086;-75
2021/10/05 10:52:42;;;;;;;0.70;0.70;;;15.80;72.20;;;;;;5071235;28;20372;-76
2021/10/05 10:55:09;;;;;;;1.13;0.77;;;15.70;72.10;;;;;;5071811;28;20024;-74
2021/10/05 10:58:05;;;;;;;2.72;0.63;;;15.70;72.50;;;;;;5071861;28;20056;-75
2021/10/05 11:00:32;;;;;;;0.52;0.47;;;15.60;73.20;;;;;;5071062;28;20048;-76
2021/10/05 11:03:02;;;;;;;2.08;0.40;;;15.70;73.80;;;;;;5071458;28;20035;-75
2021/10/05 11:05:31;;;;;;;1.00;0.57;;;15.70;74.80;;;;;;5071762;28;20024;-75
2021/10/05 11:07:58;;;;;;;0.32;0.30;;;15.60;75.40;;;;;;5071202;28;20131;-74
2021/10/05 11:10:29;;;;;;;0.30;0.30;;;15.60;75.10;;;;;;5072912;28;20504;-75
2021/10/05 11:12:57;;;;;;;0.68;0.50;;;15.60;74.50;;;;;;5071497;28;20025;-75
2021/10/05 11:15:42;;;;;;;1.35;0.90;;;15.60;74.60;;;;;;5071780;28;20472;-74
2021/10/05 11:18:13;;;;;;;1.45;0.93;;;15.60;75.80;;;;;;5072092;28;20060;-75
2021/10/05 11:20:48;;;;;;;1.65;0.60;;;15.80;76.00;;;;;;5071565;28;20124;-75
2021/10/05 11:23:18;;;;;;;1.98;0.82;;;15.80;75.60;;;;;;5073010;28;20029;-75
2021/10/05 11:25:56;;;;;;;0.95;0.60;;;16.00;75.80;;;;;;5071533;28;20029;-74
2021/10/05 11:28:28;;;;;;;1.00;1.00;;;16.10;75.90;;;;;;5071847;28;20035;-74
2021/10/05 11:30:57;;;;;;;1.75;1.02;;;16.20;75.70;;;;;;5071378;28;20079;-74
2021/10/05 11:33:33;;;;;;;2.03;1.15;;;16.20;75.60;;;;;;5071283;28;20063;-73
2021/10/05 11:36:13;;;;;;;0.70;0.70;;;16.20;75.60;;;;;;5071197;28;20024;-74
2021/10/05 11:38:45;;;;;;;1.77;0.63;;;16.30;75.50;;;;;;5071461;28;20028;-74
2021/10/05 11:41:11;;;;;;;0.95;0.77;;;16.30;74.90;;;;;;5070819;28;20059;-73
2021/10/05 11:43:48;;;;;;;1.25;0.40;;;16.30;74.80;;;;;;5070796;28;20028;-73
2021/10/05 11:46:17;;;;;;;0.63;0.52;;;16.40;74.70;;;;;;5072693;28;20024;-74
2021/10/05 11:48:47;;;;;;;0.77;0.43;;;16.40;73.80;;;;;;5071683;28;20043;-74
2021/10/05 11:51:14;;;;;;;0.98;0.68;;;16.40;72.20;;;;;;5071592;28;20369;-74
2021/10/05 11:53:40;;;;;;;0.88;0.35;;;16.30;71.50;;;;;;5071609;28;20541;-74
2021/10/05 11:56:15;;;;;;;0.60;0.43;;;16.20;71.40;;;;;;5072652;28;20035;-74
2021/10/05 11:58:52;;;;;;;0.10;0.10;;;16.20;70.80;;;;;;5071275;28;20380;-73
2021/10/05 12:01:22;;;;;;;2.35;0.30;;;16.20;70.60;;;;;;5071622;28;20037;-74
2021/10/05 12:03:50;;;;;;;0.25;0.17;;;16.20;69.70;;;;;;5071698;28;20381;-74
2021/10/05 12:06:33;;;;;;;1.73;0.90;;;16.10;70.10;;;;;;5071577;28;20028;-74
2021/10/05 12:09:00;;;;;;;0.77;0.60;;;16.00;70.40;;;;;;5071791;28;20042;-73
2021/10/05 12:11:44;;;;;;;0.57;0.25;;;15.90;71.30;;;;;;5071680;28;20028;-74
2021/10/05 12:14:11;;;;;;;0.82;0.60;;;15.70;72.70;;;;;;5071319;28;20082;-73
2021/10/05 12:16:39;;;;;;;5.55;0.50;;;15.50;72.40;;;;;;5072567;28;20028;-75
2021/10/05 12:19:05;;;;;;;0.25;0.20;;;15.30;73.80;;;;;;5054709;28;20116;-73
2021/10/05 12:21:31;;;;;;;1.15;0.55;;;15.20;73.00;;;;;;5071191;28;20573;-75
2021/10/05 12:24:00;;;;;;;0.22;0.22;;;15.00;73.70;;;;;;5071257;28;20481;-74
2021/10/05 12:26:27;;;;;;;1.10;0.45;;;15.00;75.40;;;;;;5071344;28;20028;-74
2021/10/05 12:29:10;;;;;;;1.40;0.50;;;14.90;75.20;;;;;;5072682;28;20358;-74
2021/10/05 12:31:37;;;;;;;0.80;0.40;;;14.80;75.50;;;;;;5071368;28;20068;-74
2021/10/05 12:34:07;;;;;;;0.60;0.40;;;14.80;74.80;;;;;;5071072;28;20389;-75
2021/10/05 12:36:35;;;;;;;0.77;0.45;;;14.90;73.90;;;;;;5071433;28;20115;-74
2021/10/05 12:39:27;;;;;;;1.00;0.50;;;15.10;73.80;;;;;;5071393;28;20029;-75
2021/10/05 12:42:03;;;;;;;0.30;0.30;;;15.30;73.60;;;;;;5071091;28;20037;-75
2021/10/05 12:44:31;;;;;;;;;;;15.60;72.10;;;;;;5071723;28;20028;-75